sensor_id;sensor_type;location;lat;lon;timestamp;pressure;altitude;pressure_sealevel;temperature;humidity
53715;BME280;39608;55.630;37.864;2023-09-19T00:02:56;100053.13;;;11.94;71.66
53715;BME280;39608;55.630;37.864;2023-09-19T00:08:00;100047.69;;;11.70;71.88
53715;BME280;39608;55.630;37.864;2023-09-19T00:13:04;100048.91;;;11.59;72.24
53715;BME280;39608;55.630;37.864;2023-09-19T00:18:07;100044.69;;;11.47;72.32
53715;BME280;39608;55.630;37.864;2023-09-19T00:23:10;100041.41;;;11.45;71.67
53715;BME280;39608;55.630;37.864;2023-09-19T00:28:13;100034.47;;;11.34;71.89
53715;BME280;39608;55.630;37.864;2023-09-19T00:33:16;100052.41;;;11.35;71.99
53715;BME280;39608;55.630;37.864;2023-09-19T00:38:20;100054.81;;;11.37;71.84
53715;BME280;39608;55.630;37.864;2023-09-19T00:43:26;100057.84;;;11.35;71.67
53715;BME280;39608;55.630;37.864;2023-09-19T00:48:40;100051.88;;;11.33;71.57
53715;BME280;39608;55.630;37.864;2023-09-19T00:53:44;100045.75;;;11.22;71.38
53715;BME280;39608;55.630;37.864;2023-09-19T00:58:52;100053.50;;;11.34;71.35
53715;BME280;39608;55.630;37.864;2023-09-19T01:03:54;100044.06;;;11.26;71.32
53715;BME280;39608;55.630;37.864;2023-09-19T01:08:56;100051.34;;;11.31;71.37
53715;BME280;39608;55.630;37.864;2023-09-19T01:14:06;100047.25;;;11.34;71.35
53715;BME280;39608;55.630;37.864;2023-09-19T01:19:27;100049.88;;;11.44;71.14
53715;BME280;39608;55.630;37.864;2023-09-19T01:25:20;100051.78;;;11.68;70.87
53715;BME280;39608;55.630;37.864;2023-09-19T01:30:35;100049.53;;;11.75;70.82
53715;BME280;39608;55.630;37.864;2023-09-19T01:35:41;100039.69;;;11.79;70.42
53715;BME280;39608;55.630;37.864;2023-09-19T01:40:48;100011.63;;;11.64;70.44
53715;BME280;39608;55.630;37.864;2023-09-19T01:46:01;100040.59;;;11.74;70.49
53715;BME280;39608;55.630;37.864;2023-09-19T01:51:06;100020.06;;;11.63;70.49
53715;BME280;39608;55.630;37.864;2023-09-19T01:56:16;100021.03;;;11.72;70.60
53715;BME280;39608;55.630;37.864;2023-09-19T02:01:25;100017.84;;;11.65;70.27
53715;BME280;39608;55.630;37.864;2023-09-19T02:06:28;100015.56;;;11.53;70.46
53715;BME280;39608;55.630;37.864;2023-09-19T02:11:38;100022.19;;;11.42;70.22
53715;BME280;39608;55.630;37.864;2023-09-19T02:16:42;100003.09;;;11.23;70.81
53715;BME280;39608;55.630;37.864;2023-09-19T02:21:45;100016.84;;;11.02;70.74
53715;BME280;39608;55.630;37.864;2023-09-19T02:26:49;100015.59;;;10.94;71.05
53715;BME280;39608;55.630;37.864;2023-09-19T02:31:53;99987.28;;;10.71;70.92
53715;BME280;39608;55.630;37.864;2023-09-19T02:36:56;100008.19;;;10.71;71.01
53715;BME280;39608;55.630;37.864;2023-09-19T02:41:58;100005.03;;;10.53;71.07
53715;BME280;39608;55.630;37.864;2023-09-19T02:47:02;99995.13;;;10.38;71.59
53715;BME280;39608;55.630;37.864;2023-09-19T02:52:05;100009.53;;;10.28;71.50
53715;BME280;39608;55.630;37.864;2023-09-19T02:57:08;99992.81;;;10.11;71.71
53715;BME280;39608;55.630;37.864;2023-09-19T03:02:11;100004.72;;;10.15;71.85
53715;BME280;39608;55.630;37.864;2023-09-19T03:07:14;100026.69;;;10.08;71.76
53715;BME280;39608;55.630;37.864;2023-09-19T03:12:16;100015.91;;;9.98;72.25
53715;BME280;39608;55.630;37.864;2023-09-19T03:17:19;100021.56;;;10.07;72.17
53715;BME280;39608;55.630;37.864;2023-09-19T03:22:22;100018.53;;;10.14;72.04
53715;BME280;39608;55.630;37.864;2023-09-19T03:27:25;99997.38;;;10.21;72.04
53715;BME280;39608;55.630;37.864;2023-09-19T03:32:29;100005.28;;;10.62;71.80
53715;BME280;39608;55.630;37.864;2023-09-19T03:37:31;100008.06;;;10.86;71.17
53715;BME280;39608;55.630;37.864;2023-09-19T03:42:34;100011.94;;;11.09;70.76
53715;BME280;39608;55.630;37.864;2023-09-19T03:47:38;100016.69;;;11.23;70.45
53715;BME280;39608;55.630;37.864;2023-09-19T03:52:41;100012.03;;;11.23;70.43
53715;BME280;39608;55.630;37.864;2023-09-19T03:57:48;100009.66;;;11.46;70.38
53715;BME280;39608;55.630;37.864;2023-09-19T04:02:52;99984.38;;;11.45;70.15
53715;BME280;39608;55.630;37.864;2023-09-19T04:08:00;99997.88;;;11.56;70.03
53715;BME280;39608;55.630;37.864;2023-09-19T04:13:02;99986.75;;;11.52;69.80
53715;BME280;39608;55.630;37.864;2023-09-19T04:18:06;100004.16;;;11.75;69.89
53715;BME280;39608;55.630;37.864;2023-09-19T04:23:08;99997.16;;;11.69;69.98
53715;BME280;39608;55.630;37.864;2023-09-19T04:28:10;99979.91;;;11.79;69.71
53715;BME280;39608;55.630;37.864;2023-09-19T04:33:15;99991.72;;;11.93;69.55
53715;BME280;39608;55.630;37.864;2023-09-19T04:38:17;99985.81;;;12.10;69.38
53715;BME280;39608;55.630;37.864;2023-09-19T04:43:19;99983.72;;;12.21;68.92
53715;BME280;39608;55.630;37.864;2023-09-19T04:48:23;99982.78;;;12.31;68.83
53715;BME280;39608;55.630;37.864;2023-09-19T04:53:30;99972.66;;;12.18;68.70
53715;BME280;39608;55.630;37.864;2023-09-19T04:58:32;99981.41;;;12.14;68.95
53715;BME280;39608;55.630;37.864;2023-09-19T05:03:35;99983.81;;;12.16;69.07
53715;BME280;39608;55.630;37.864;2023-09-19T05:08:37;99992.25;;;12.33;68.72
53715;BME280;39608;55.630;37.864;2023-09-19T05:13:39;99985.72;;;12.54;68.28
53715;BME280;39608;55.630;37.864;2023-09-19T05:18:43;99983.66;;;12.78;68.20
53715;BME280;39608;55.630;37.864;2023-09-19T05:23:46;99974.84;;;13.00;67.37
53715;BME280;39608;55.630;37.864;2023-09-19T05:28:50;99975.59;;;13.34;66.79
53715;BME280;39608;55.630;37.864;2023-09-19T05:33:54;99974.94;;;13.56;66.41
53715;BME280;39608;55.630;37.864;2023-09-19T05:38:56;99969.06;;;13.77;65.95
53715;BME280;39608;55.630;37.864;2023-09-19T05:43:58;99967.31;;;13.95;65.55
53715;BME280;39608;55.630;37.864;2023-09-19T05:49:03;99968.47;;;14.16;65.05
53715;BME280;39608;55.630;37.864;2023-09-19T05:54:05;99963.47;;;14.32;64.60
53715;BME280;39608;55.630;37.864;2023-09-19T05:59:07;99954.50;;;14.32;64.70
53715;BME280;39608;55.630;37.864;2023-09-19T06:04:11;99966.22;;;14.55;64.25
53715;BME280;39608;55.630;37.864;2023-09-19T06:09:16;99959.03;;;14.82;64.17
53715;BME280;39608;55.630;37.864;2023-09-19T06:14:19;99960.34;;;15.16;63.01
53715;BME280;39608;55.630;37.864;2023-09-19T06:19:23;99954.69;;;15.52;62.25
53715;BME280;39608;55.630;37.864;2023-09-19T06:24:26;99942.53;;;15.76;61.53
53715;BME280;39608;55.630;37.864;2023-09-19T06:29:29;99957.06;;;15.85;61.61
53715;BME280;39608;55.630;37.864;2023-09-19T06:34:32;99959.06;;;15.62;61.99
53715;BME280;39608;55.630;37.864;2023-09-19T06:39:36;99949.16;;;15.35;62.63
53715;BME280;39608;55.630;37.864;2023-09-19T06:44:38;99946.38;;;15.26;62.94
53715;BME280;39608;55.630;37.864;2023-09-19T06:49:42;99942.41;;;15.32;63.02
53715;BME280;39608;55.630;37.864;2023-09-19T06:54:44;99955.63;;;15.39;63.10
53715;BME280;39608;55.630;37.864;2023-09-19T06:59:46;99952.91;;;15.48;63.09
53715;BME280;39608;55.630;37.864;2023-09-19T07:04:49;99938.00;;;15.63;62.92
53715;BME280;39608;55.630;37.864;2023-09-19T07:09:56;99916.81;;;15.95;62.47
53715;BME280;39608;55.630;37.864;2023-09-19T07:14:58;99925.59;;;16.70;61.03
53715;BME280;39608;55.630;37.864;2023-09-19T07:20:02;99944.81;;;18.28;57.95
53715;BME280;39608;55.630;37.864;2023-09-19T07:25:09;99955.66;;;19.13;55.72
53715;BME280;39608;55.630;37.864;2023-09-19T07:30:14;99947.84;;;19.03;55.72
53715;BME280;39608;55.630;37.864;2023-09-19T07:35:18;99941.38;;;18.86;55.86
53715;BME280;39608;55.630;37.864;2023-09-19T07:40:21;99941.50;;;18.90;55.53
53715;BME280;39608;55.630;37.864;2023-09-19T07:45:29;99944.91;;;19.32;54.46
53715;BME280;39608;55.630;37.864;2023-09-19T07:50:34;99946.63;;;19.62;53.77
53715;BME280;39608;55.630;37.864;2023-09-19T07:55:37;99931.31;;;20.02;52.86
53715;BME280;39608;55.630;37.864;2023-09-19T08:00:40;99926.25;;;21.05;50.55
53715;BME280;39608;55.630;37.864;2023-09-19T08:05:46;99926.94;;;21.65;48.81
53715;BME280;39608;55.630;37.864;2023-09-19T08:10:52;99922.03;;;21.75;48.49
53715;BME280;39608;55.630;37.864;2023-09-19T08:15:56;99912.22;;;21.77;47.94
53715;BME280;39608;55.630;37.864;2023-09-19T08:21:03;99902.28;;;22.12;47.81
53715;BME280;39608;55.630;37.864;2023-09-19T08:26:05;99882.78;;;22.86;45.00
53715;BME280;39608;55.630;37.864;2023-09-19T08:31:10;99877.63;;;23.62;43.72
53715;BME280;39608;55.630;37.864;2023-09-19T08:36:13;99891.63;;;23.19;44.71
53715;BME280;39608;55.630;37.864;2023-09-19T08:41:17;99882.41;;;23.65;43.54
53715;BME280;39608;55.630;37.864;2023-09-19T08:46:20;99880.91;;;24.73;41.26
53715;BME280;39608;55.630;37.864;2023-09-19T08:51:33;99881.59;;;27.41;37.33
53715;BME280;39608;55.630;37.864;2023-09-19T08:56:41;99882.56;;;28.20;35.17
53715;BME280;39608;55.630;37.864;2023-09-19T09:01:45;99875.91;;;28.66;33.65
53715;BME280;39608;55.630;37.864;2023-09-19T09:06:50;99869.50;;;29.60;32.88
53715;BME280;39608;55.630;37.864;2023-09-19T09:11:56;99870.56;;;29.69;32.50
53715;BME280;39608;55.630;37.864;2023-09-19T09:17:00;99869.25;;;26.56;36.22
53715;BME280;39608;55.630;37.864;2023-09-19T09:22:08;99858.88;;;24.50;40.97
53715;BME280;39608;55.630;37.864;2023-09-19T09:27:12;99850.34;;;22.83;43.70
53715;BME280;39608;55.630;37.864;2023-09-19T09:32:18;99845.72;;;22.05;45.63
53715;BME280;39608;55.630;37.864;2023-09-19T09:37:22;99849.59;;;21.81;46.33
53715;BME280;39608;55.630;37.864;2023-09-19T09:42:30;99850.59;;;22.12;46.08
53715;BME280;39608;55.630;37.864;2023-09-19T09:47:41;99842.03;;;22.83;44.87
53715;BME280;39608;55.630;37.864;2023-09-19T09:52:52;99844.75;;;23.30;44.08
53715;BME280;39608;55.630;37.864;2023-09-19T09:58:16;99847.06;;;24.19;42.79
53715;BME280;39608;55.630;37.864;2023-09-19T10:03:20;99838.88;;;23.65;43.26
53715;BME280;39608;55.630;37.864;2023-09-19T10:08:24;99832.31;;;23.47;43.95
53715;BME280;39608;55.630;37.864;2023-09-19T10:13:35;99824.22;;;23.07;44.85
53715;BME280;39608;55.630;37.864;2023-09-19T10:18:42;99811.47;;;22.99;45.03
53715;BME280;39608;55.630;37.864;2023-09-19T10:23:46;99809.19;;;23.32;44.81
53715;BME280;39608;55.630;37.864;2023-09-19T10:28:50;99817.91;;;23.64;44.42
53715;BME280;39608;55.630;37.864;2023-09-19T10:33:55;99812.47;;;23.71;44.14
53715;BME280;39608;55.630;37.864;2023-09-19T10:39:00;99810.38;;;23.95;44.02
53715;BME280;39608;55.630;37.864;2023-09-19T10:44:10;99812.47;;;24.43;43.30
53715;BME280;39608;55.630;37.864;2023-09-19T10:49:12;99796.69;;;24.96;41.91
53715;BME280;39608;55.630;37.864;2023-09-19T10:54:17;99793.31;;;26.41;39.70
53715;BME280;39608;55.630;37.864;2023-09-19T10:59:22;99782.13;;;27.24;37.54
53715;BME280;39608;55.630;37.864;2023-09-19T11:04:27;99785.44;;;30.05;33.50
53715;BME280;39608;55.630;37.864;2023-09-19T11:09:52;99784.19;;;34.91;29.14
53715;BME280;39608;55.630;37.864;2023-09-19T11:14:55;99788.13;;;36.14;25.65
53715;BME280;39608;55.630;37.864;2023-09-19T11:20:22;99782.66;;;35.35;27.93
53715;BME280;39608;55.630;37.864;2023-09-19T11:25:43;99778.16;;;34.54;27.62
53715;BME280;39608;55.630;37.864;2023-09-19T11:30:49;99765.94;;;32.66;28.85
53715;BME280;39608;55.630;37.864;2023-09-19T11:36:01;99777.38;;;35.24;27.15
53715;BME280;39608;55.630;37.864;2023-09-19T11:41:38;99786.72;;;38.86;23.94
53715;BME280;39608;55.630;37.864;2023-09-19T11:46:52;99786.84;;;40.26;22.11
53715;BME280;39608;55.630;37.864;2023-09-19T11:51:54;99779.25;;;40.38;20.60
53715;BME280;39608;55.630;37.864;2023-09-19T11:56:59;99774.66;;;39.90;21.02
53715;BME280;39608;55.630;37.864;2023-09-19T12:02:04;99761.38;;;39.66;21.12
53715;BME280;39608;55.630;37.864;2023-09-19T12:07:10;99755.00;;;38.15;22.46
53715;BME280;39608;55.630;37.864;2023-09-19T12:12:22;99738.75;;;38.49;22.68
53715;BME280;39608;55.630;37.864;2023-09-19T12:17:35;99739.06;;;39.29;22.01
53715;BME280;39608;55.630;37.864;2023-09-19T12:22:39;99729.69;;;38.84;21.82
53715;BME280;39608;55.630;37.864;2023-09-19T12:27:47;99721.00;;;37.91;22.71
53715;BME280;39608;55.630;37.864;2023-09-19T12:32:50;99712.84;;;38.17;22.64
53715;BME280;39608;55.630;37.864;2023-09-19T12:37:52;99709.91;;;38.36;22.45
53715;BME280;39608;55.630;37.864;2023-09-19T12:43:03;99708.44;;;38.16;23.40
53715;BME280;39608;55.630;37.864;2023-09-19T12:48:22;99708.31;;;38.10;23.74
53715;BME280;39608;55.630;37.864;2023-09-19T12:53:32;99674.97;;;35.58;25.81
53715;BME280;39608;55.630;37.864;2023-09-19T12:58:50;99689.91;;;36.09;25.23
53715;BME280;39608;55.630;37.864;2023-09-19T13:04:14;99684.47;;;36.52;25.21
53715;BME280;39608;55.630;37.864;2023-09-19T13:09:20;99678.44;;;35.62;25.17
53715;BME280;39608;55.630;37.864;2023-09-19T13:14:24;99685.47;;;34.82;26.39
53715;BME280;39608;55.630;37.864;2023-09-19T13:19:38;99666.59;;;33.19;28.39
53715;BME280;39608;55.630;37.864;2023-09-19T13:24:41;99661.06;;;31.78;30.34
53715;BME280;39608;55.630;37.864;2023-09-19T13:29:44;99653.59;;;31.87;30.41
53715;BME280;39608;55.630;37.864;2023-09-19T13:34:47;99653.81;;;31.23;31.83
53715;BME280;39608;55.630;37.864;2023-09-19T13:39:49;99655.53;;;30.33;33.19
53715;BME280;39608;55.630;37.864;2023-09-19T13:44:53;99664.78;;;29.79;33.99
53715;BME280;39608;55.630;37.864;2023-09-19T13:49:55;99643.09;;;29.60;34.32
53715;BME280;39608;55.630;37.864;2023-09-19T13:54:58;99643.78;;;29.40;34.53
53715;BME280;39608;55.630;37.864;2023-09-19T14:00:07;99645.38;;;29.41;35.21
53715;BME280;39608;55.630;37.864;2023-09-19T14:05:10;99644.09;;;30.00;34.04
53715;BME280;39608;55.630;37.864;2023-09-19T14:10:20;99627.44;;;29.66;34.45
53715;BME280;39608;55.630;37.864;2023-09-19T14:15:24;99638.25;;;28.26;36.97
53715;BME280;39608;55.630;37.864;2023-09-19T14:20:30;99621.09;;;27.82;37.84
53715;BME280;39608;55.630;37.864;2023-09-19T14:25:34;99632.63;;;27.13;39.30
53715;BME280;39608;55.630;37.864;2023-09-19T14:30:38;99621.63;;;26.67;40.64
53715;BME280;39608;55.630;37.864;2023-09-19T14:35:40;99622.88;;;26.51;40.94
53715;BME280;39608;55.630;37.864;2023-09-19T14:40:42;99621.31;;;25.56;42.79
53715;BME280;39608;55.630;37.864;2023-09-19T14:45:45;99624.78;;;24.51;45.33
53715;BME280;39608;55.630;37.864;2023-09-19T14:50:50;99618.72;;;23.41;48.00
53715;BME280;39608;55.630;37.864;2023-09-19T14:55:52;99618.69;;;22.73;49.69
53715;BME280;39608;55.630;37.864;2023-09-19T15:01:03;99618.34;;;22.48;50.53
53715;BME280;39608;55.630;37.864;2023-09-19T15:06:08;99613.94;;;21.93;52.36
53715;BME280;39608;55.630;37.864;2023-09-19T15:11:13;99612.44;;;21.53;53.14
53715;BME280;39608;55.630;37.864;2023-09-19T15:16:18;99610.41;;;21.30;53.86
53715;BME280;39608;55.630;37.864;2023-09-19T15:21:20;99604.72;;;21.00;54.30
53715;BME280;39608;55.630;37.864;2023-09-19T15:26:23;99612.31;;;20.87;54.78
53715;BME280;39608;55.630;37.864;2023-09-19T15:31:27;99605.47;;;20.61;55.86
53715;BME280;39608;55.630;37.864;2023-09-19T15:36:29;99610.06;;;20.38;56.33
53715;BME280;39608;55.630;37.864;2023-09-19T15:41:32;99604.03;;;20.16;57.05
53715;BME280;39608;55.630;37.864;2023-09-19T15:46:36;99605.38;;;20.06;57.03
53715;BME280;39608;55.630;37.864;2023-09-19T15:51:38;99591.00;;;19.81;57.95
53715;BME280;39608;55.630;37.864;2023-09-19T15:56:41;99600.66;;;19.75;58.16
53715;BME280;39608;55.630;37.864;2023-09-19T16:01:45;99599.34;;;19.69;59.06
53715;BME280;39608;55.630;37.864;2023-09-19T16:06:47;99589.81;;;19.50;58.99
53715;BME280;39608;55.630;37.864;2023-09-19T16:11:49;99594.88;;;19.48;59.12
53715;BME280;39608;55.630;37.864;2023-09-19T16:16:53;99608.34;;;19.37;60.15
53715;BME280;39608;55.630;37.864;2023-09-19T16:21:55;99563.72;;;19.00;60.12
53715;BME280;39608;55.630;37.864;2023-09-19T16:26:59;99599.59;;;19.19;60.97
53715;BME280;39608;55.630;37.864;2023-09-19T16:32:03;99609.41;;;19.04;61.23
53715;BME280;39608;55.630;37.864;2023-09-19T16:37:05;99593.09;;;18.83;61.23
53715;BME280;39608;55.630;37.864;2023-09-19T16:42:08;99614.25;;;18.83;61.47
53715;BME280;39608;55.630;37.864;2023-09-19T16:47:13;99605.44;;;18.77;61.73
53715;BME280;39608;55.630;37.864;2023-09-19T16:52:15;99608.34;;;18.68;61.97
53715;BME280;39608;55.630;37.864;2023-09-19T16:57:17;99616.72;;;18.59;62.38
53715;BME280;39608;55.630;37.864;2023-09-19T17:02:20;99620.41;;;18.51;63.04
53715;BME280;39608;55.630;37.864;2023-09-19T17:07:22;99611.59;;;18.45;63.14
53715;BME280;39608;55.630;37.864;2023-09-19T17:12:27;99621.31;;;18.43;63.34
53715;BME280;39608;55.630;37.864;2023-09-19T17:17:30;99630.69;;;18.42;63.86
53715;BME280;39608;55.630;37.864;2023-09-19T17:22:34;99627.81;;;18.38;63.63
53715;BME280;39608;55.630;37.864;2023-09-19T17:27:39;99628.53;;;18.35;63.71
53715;BME280;39608;55.630;37.864;2023-09-19T17:32:45;99627.03;;;18.38;63.69
53715;BME280;39608;55.630;37.864;2023-09-19T17:37:48;99595.59;;;18.10;63.89
53715;BME280;39608;55.630;37.864;2023-09-19T17:42:50;99630.34;;;18.31;64.07
53715;BME280;39608;55.630;37.864;2023-09-19T17:47:53;99630.81;;;18.33;64.46
53715;BME280;39608;55.630;37.864;2023-09-19T17:52:56;99619.84;;;18.21;64.72
53715;BME280;39608;55.630;37.864;2023-09-19T17:57:58;99623.28;;;18.18;64.84
53715;BME280;39608;55.630;37.864;2023-09-19T18:03:03;99627.38;;;18.24;65.17
53715;BME280;39608;55.630;37.864;2023-09-19T18:08:05;99623.16;;;18.14;65.25
53715;BME280;39608;55.630;37.864;2023-09-19T18:13:07;99626.38;;;18.04;65.51
53715;BME280;39608;55.630;37.864;2023-09-19T18:18:11;99622.69;;;18.00;65.87
53715;BME280;39608;55.630;37.864;2023-09-19T18:23:13;99623.91;;;17.90;65.93
53715;BME280;39608;55.630;37.864;2023-09-19T18:28:16;99622.66;;;17.87;65.95
53715;BME280;39608;55.630;37.864;2023-09-19T18:33:20;99627.78;;;17.89;65.97
53715;BME280;39608;55.630;37.864;2023-09-19T18:38:23;99625.41;;;17.87;65.76
53715;BME280;39608;55.630;37.864;2023-09-19T18:43:26;99618.31;;;17.86;65.61
53715;BME280;39608;55.630;37.864;2023-09-19T18:48:29;99619.78;;;17.84;65.48
53715;BME280;39608;55.630;37.864;2023-09-19T18:53:31;99623.56;;;17.79;65.41
53715;BME280;39608;55.630;37.864;2023-09-19T18:58:34;99616.22;;;17.71;65.51
53715;BME280;39608;55.630;37.864;2023-09-19T19:03:39;99609.16;;;17.70;65.18
53715;BME280;39608;55.630;37.864;2023-09-19T19:08:43;99598.81;;;17.54;65.11
53715;BME280;39608;55.630;37.864;2023-09-19T19:13:45;99604.66;;;17.65;64.96
53715;BME280;39608;55.630;37.864;2023-09-19T19:18:49;99611.63;;;17.62;64.75
53715;BME280;39608;55.630;37.864;2023-09-19T19:23:53;99606.94;;;17.51;64.97
53715;BME280;39608;55.630;37.864;2023-09-19T19:28:56;99598.34;;;17.40;64.96
53715;BME280;39608;55.630;37.864;2023-09-19T19:33:59;99606.06;;;17.25;65.08
53715;BME280;39608;55.630;37.864;2023-09-19T19:39:01;99604.22;;;17.17;65.33
53715;BME280;39608;55.630;37.864;2023-09-19T19:44:05;99609.88;;;17.12;65.47
53715;BME280;39608;55.630;37.864;2023-09-19T19:49:10;99618.63;;;17.05;65.47
53715;BME280;39608;55.630;37.864;2023-09-19T19:54:12;99617.94;;;16.96;65.48
53715;BME280;39608;55.630;37.864;2023-09-19T19:59:14;99609.56;;;16.92;65.58
53715;BME280;39608;55.630;37.864;2023-09-19T20:04:26;99620.66;;;16.96;65.47
53715;BME280;39608;55.630;37.864;2023-09-19T20:09:29;99599.78;;;16.83;65.64
53715;BME280;39608;55.630;37.864;2023-09-19T20:14:31;99610.16;;;16.77;65.61
53715;BME280;39608;55.630;37.864;2023-09-19T20:19:35;99607.81;;;16.67;65.67
53715;BME280;39608;55.630;37.864;2023-09-19T20:24:37;99623.47;;;16.66;65.69
53715;BME280;39608;55.630;37.864;2023-09-19T20:29:39;99623.16;;;16.59;65.56
53715;BME280;39608;55.630;37.864;2023-09-19T20:34:44;99615.94;;;16.54;65.66
53715;BME280;39608;55.630;37.864;2023-09-19T20:39:46;99624.22;;;16.46;65.52
53715;BME280;39608;55.630;37.864;2023-09-19T20:44:48;99623.28;;;16.41;65.59
53715;BME280;39608;55.630;37.864;2023-09-19T20:49:52;99621.06;;;16.35;65.46
53715;BME280;39608;55.630;37.864;2023-09-19T20:54:54;99625.13;;;16.29;65.53
53715;BME280;39608;55.630;37.864;2023-09-19T20:59:56;99621.13;;;16.26;65.33
53715;BME280;39608;55.630;37.864;2023-09-19T21:05:03;99612.91;;;16.26;65.26
53715;BME280;39608;55.630;37.864;2023-09-19T21:10:06;99617.88;;;16.24;65.02
53715;BME280;39608;55.630;37.864;2023-09-19T21:15:09;99609.56;;;16.20;65.15
53715;BME280;39608;55.630;37.864;2023-09-19T21:20:14;99616.63;;;16.21;65.05
53715;BME280;39608;55.630;37.864;2023-09-19T21:25:19;99626.66;;;16.17;64.79
53715;BME280;39608;55.630;37.864;2023-09-19T21:30:21;99621.34;;;16.12;64.52
53715;BME280;39608;55.630;37.864;2023-09-19T21:35:25;99622.28;;;16.16;64.61
53715;BME280;39608;55.630;37.864;2023-09-19T21:40:27;99616.81;;;16.16;64.32
53715;BME280;39608;55.630;37.864;2023-09-19T21:45:33;99619.88;;;16.15;64.48
53715;BME280;39608;55.630;37.864;2023-09-19T21:50:37;99607.38;;;16.05;64.46
53715;BME280;39608;55.630;37.864;2023-09-19T21:55:39;99610.56;;;16.07;64.24
53715;BME280;39608;55.630;37.864;2023-09-19T22:00:44;99610.56;;;16.07;64.14
53715;BME280;39608;55.630;37.864;2023-09-19T22:05:52;99607.66;;;16.12;64.05
53715;BME280;39608;55.630;37.864;2023-09-19T22:10:54;99609.97;;;16.01;64.08
53715;BME280;39608;55.630;37.864;2023-09-19T22:15:57;99612.88;;;15.96;64.06
53715;BME280;39608;55.630;37.864;2023-09-19T22:21:01;99606.78;;;15.90;64.00
53715;BME280;39608;55.630;37.864;2023-09-19T22:26:08;99611.50;;;15.81;63.96
53715;BME280;39608;55.630;37.864;2023-09-19T22:31:14;99605.38;;;15.76;63.87
53715;BME280;39608;55.630;37.864;2023-09-19T22:36:23;99584.03;;;15.60;63.93
53715;BME280;39608;55.630;37.864;2023-09-19T22:41:31;99605.09;;;15.68;64.03
53715;BME280;39608;55.630;37.864;2023-09-19T22:46:34;99611.81;;;15.71;64.04
53715;BME280;39608;55.630;37.864;2023-09-19T22:51:43;99599.28;;;15.70;63.86
53715;BME280;39608;55.630;37.864;2023-09-19T22:56:50;99595.16;;;15.55;63.95
53715;BME280;39608;55.630;37.864;2023-09-19T23:01:53;99601.06;;;15.57;64.06
53715;BME280;39608;55.630;37.864;2023-09-19T23:06:59;99592.25;;;15.60;63.90
53715;BME280;39608;55.630;37.864;2023-09-19T23:12:06;99596.56;;;15.70;63.42
53715;BME280;39608;55.630;37.864;2023-09-19T23:17:12;99592.09;;;15.56;63.64
53715;BME280;39608;55.630;37.864;2023-09-19T23:22:16;99598.06;;;15.50;63.81
53715;BME280;39608;55.630;37.864;2023-09-19T23:27:23;99598.25;;;15.45;63.75
53715;BME280;39608;55.630;37.864;2023-09-19T23:32:27;99596.47;;;15.40;63.78
53715;BME280;39608;55.630;37.864;2023-09-19T23:37:31;99596.00;;;15.38;63.96
53715;BME280;39608;55.630;37.864;2023-09-19T23:42:36;99594.41;;;15.28;63.97
53715;BME280;39608;55.630;37.864;2023-09-19T23:47:43;99593.44;;;15.24;64.06
53715;BME280;39608;55.630;37.864;2023-09-19T23:52:48;99593.59;;;15.19;64.07
53715;BME280;39608;55.630;37.864;2023-09-19T23:57:50;99589.78;;;15.11;64.20
